Chinley, United Kingdom
Current Conditions -  °F | °C
As of 9:50 PM on Monday 22 Dec 2014 (Local Time) from EGCC Reporting Station
Broken Clouds Broken Clouds  
Wind Chill: 54°   Ceiling: 2200
Heat Index: 54°   Visibility: 6mi
Dew Point: 48°   Wind: 18mph
Humidity: 82%   Direction: 230°SW
Pressure: 29.85"   Gusts: NA
Location:  53.34°N, 1.94°W
Report Text: EGCC 222150Z 23016KT 9999 BKN022 12/09 Q1011 NOSIG
Loading
Personal Weather Stations






























Interactive Weather Map New forecast layout! Learn more

10-Day Weather Forecast

Advertisements
Track Severe Weather on mobile